createdAt,value
2017-08-09T00:02:22.089Z,15.17
2017-08-09T00:04:50.221Z,15.70
2017-08-09T00:07:18.334Z,16.17
2017-08-09T00:09:46.478Z,16.03
2017-08-09T00:12:14.584Z,16.97
2017-08-09T00:14:42.700Z,16.90
2017-08-09T00:17:10.825Z,18.33
2017-08-09T00:19:38.965Z,18.23
2017-08-09T00:22:07.184Z,17.67
2017-08-09T00:24:35.335Z,17.63
2017-08-09T00:27:03.453Z,18.87
2017-08-09T00:29:31.630Z,18.00
2017-08-09T00:31:59.768Z,17.87
2017-08-09T00:34:27.938Z,18.03
2017-08-09T00:36:56.108Z,18.23
2017-08-09T00:39:24.277Z,18.43
2017-08-09T00:41:52.410Z,17.70
2017-08-09T00:44:20.569Z,21.27
2017-08-09T00:46:50.374Z,21.17
2017-08-09T00:49:18.526Z,21.90
2017-08-09T00:51:46.679Z,23.40
2017-08-09T00:54:14.853Z,22.50
2017-08-09T00:56:43.003Z,24.27
2017-08-09T00:59:11.183Z,23.10
2017-08-09T01:01:39.321Z,22.23
2017-08-09T01:04:18.380Z,24.33
2017-08-09T01:06:46.566Z,22.20
2017-08-09T01:09:14.737Z,23.80
2017-08-09T01:11:43.655Z,23.73
2017-08-09T01:14:11.778Z,22.87
2017-08-09T01:16:39.986Z,24.57
2017-08-09T01:19:08.132Z,24.80
2017-08-09T01:21:36.305Z,24.60
2017-08-09T01:24:04.451Z,25.47
2017-08-09T01:26:32.640Z,25.13
2017-08-09T01:29:00.748Z,25.40
2017-08-09T01:31:28.999Z,25.73
2017-08-09T01:33:57.262Z,25.23
2017-08-09T01:36:25.377Z,23.53
2017-08-09T01:38:55.406Z,26.53
2017-08-09T01:41:23.550Z,27.10
2017-08-09T01:43:51.670Z,24.37
2017-08-09T01:46:19.802Z,25.07
2017-08-09T01:48:47.946Z,23.03
2017-08-09T01:51:16.057Z,23.80
2017-08-09T01:53:44.171Z,25.03
2017-08-09T01:56:12.373Z,24.03
2017-08-09T01:58:40.514Z,24.03
2017-08-09T02:01:08.604Z,25.97
2017-08-09T02:03:36.724Z,24.43
2017-08-09T02:06:04.879Z,24.30
2017-08-09T02:08:33.018Z,23.10
2017-08-09T02:11:01.121Z,24.90
2017-08-09T02:13:29.291Z,24.37
2017-08-09T02:15:57.418Z,23.30
2017-08-09T02:18:25.764Z,22.33
2017-08-09T02:20:53.882Z,23.17
2017-08-09T02:23:22.049Z,22.43
2017-08-09T02:25:50.246Z,20.93
2017-08-09T02:28:18.342Z,20.57
2017-08-09T02:30:46.471Z,19.27
2017-08-09T02:33:14.616Z,18.67
2017-08-09T02:35:42.735Z,18.87
2017-08-09T02:38:10.893Z,19.30
2017-08-09T02:40:39.037Z,19.43
2017-08-09T02:43:07.182Z,20.93
2017-08-09T02:45:35.313Z,19.23
2017-08-09T02:48:03.440Z,17.77
2017-08-09T02:50:31.578Z,17.50
2017-08-09T02:52:59.709Z,15.60
2017-08-09T02:55:27.888Z,14.50
2017-08-09T02:57:56.014Z,14.57
2017-08-09T03:00:24.134Z,13.90
2017-08-09T03:02:52.290Z,11.90
2017-08-09T03:05:20.436Z,11.93
2017-08-09T03:07:48.582Z,9.57
2017-08-09T03:10:16.786Z,9.20
2017-08-09T03:12:44.945Z,8.83
2017-08-09T03:15:13.080Z,9.27
2017-08-09T03:17:41.211Z,11.13
2017-08-09T03:20:09.364Z,11.20
2017-08-09T03:22:37.474Z,10.80
2017-08-09T03:25:05.606Z,10.63
2017-08-09T03:27:33.784Z,12.50
2017-08-09T03:30:01.901Z,12.43
2017-08-09T03:32:30.063Z,11.53
2017-08-09T03:34:58.253Z,11.80
2017-08-09T03:37:26.966Z,12.17
2017-08-09T03:39:56.397Z,12.20
2017-08-09T03:42:25.218Z,12.47
2017-08-09T03:44:53.360Z,11.80
2017-08-09T03:47:21.470Z,10.97
2017-08-09T03:49:49.599Z,11.17
2017-08-09T03:52:17.717Z,11.20
2017-08-09T03:54:46.448Z,11.33
2017-08-09T03:57:14.581Z,12.70
2017-08-09T03:59:42.691Z,11.60
2017-08-09T04:02:10.814Z,11.63
2017-08-09T04:04:38.983Z,10.60
2017-08-09T04:07:07.173Z,10.60
2017-08-09T04:09:35.283Z,11.23
2017-08-09T04:12:03.435Z,11.80
2017-08-09T04:14:31.572Z,10.93
2017-08-09T04:16:59.712Z,10.73
2017-08-09T04:22:28.053Z,10.57
2017-08-09T04:24:56.176Z,10.80
2017-08-09T04:27:24.310Z,11.90
2017-08-09T04:29:52.426Z,13.10
2017-08-09T04:32:20.586Z,12.60
2017-08-09T04:34:48.771Z,12.50
2017-08-09T04:37:16.963Z,13.23
2017-08-09T04:39:45.154Z,13.83
2017-08-09T04:42:13.336Z,13.60
2017-08-09T04:44:41.462Z,13.40
2017-08-09T04:47:09.606Z,13.37
2017-08-09T04:49:37.745Z,13.50
2017-08-09T04:52:05.936Z,13.63
2017-08-09T04:54:34.035Z,12.50
2017-08-09T04:57:02.170Z,14.87
2017-08-09T04:59:30.314Z,14.40
2017-08-09T05:01:58.478Z,15.27
2017-08-09T05:04:27.801Z,14.60
2017-08-09T05:06:55.962Z,14.50
2017-08-09T05:09:24.126Z,15.50
2017-08-09T05:11:52.254Z,15.07
2017-08-09T05:14:20.390Z,15.57
2017-08-09T05:16:48.644Z,15.47
2017-08-09T05:19:16.780Z,16.50
2017-08-09T05:21:44.920Z,16.60
2017-08-09T05:24:13.102Z,18.00
2017-08-09T05:26:41.282Z,18.27
2017-08-09T05:29:09.444Z,18.03
2017-08-09T05:31:37.749Z,17.30
2017-08-09T05:34:05.922Z,17.30
2017-08-09T05:36:34.986Z,18.30
2017-08-09T05:39:03.134Z,19.20
2017-08-09T05:41:31.279Z,18.40
2017-08-09T05:43:59.479Z,18.10
2017-08-09T05:46:27.647Z,16.03
2017-08-09T05:48:55.897Z,17.67
2017-08-09T05:51:24.037Z,16.60
2017-08-09T05:53:52.217Z,17.50
2017-08-09T05:56:20.423Z,16.83
2017-08-09T05:58:48.554Z,16.63
2017-08-09T06:01:16.844Z,15.90
2017-08-09T06:03:44.958Z,17.70
2017-08-09T06:06:13.110Z,18.10
2017-08-09T06:08:41.251Z,15.83
2017-08-09T06:11:09.387Z,15.50
2017-08-09T06:13:37.517Z,15.07
2017-08-09T06:16:05.630Z,15.67
2017-08-09T06:18:33.788Z,16.40
2017-08-09T06:21:01.981Z,15.80
2017-08-09T06:23:30.109Z,14.37
2017-08-09T06:25:58.255Z,13.93
2017-08-09T06:28:26.389Z,14.40
2017-08-09T06:30:54.559Z,14.40
2017-08-09T06:33:22.682Z,13.80
2017-08-09T06:35:50.812Z,13.00
2017-08-09T06:38:18.938Z,15.13
2017-08-09T06:40:47.125Z,14.80
2017-08-09T06:43:15.228Z,13.23
2017-08-09T06:45:43.369Z,13.20
2017-08-09T06:48:11.531Z,12.30
2017-08-09T06:50:39.788Z,12.77
2017-08-09T06:53:07.908Z,10.90
2017-08-09T06:55:36.235Z,11.67
2017-08-09T06:58:04.379Z,10.30
2017-08-09T07:00:32.640Z,9.80
2017-08-09T07:03:00.802Z,8.87
2017-08-09T07:05:29.051Z,9.27
2017-08-09T07:07:57.313Z,9.47
2017-08-09T07:10:25.500Z,8.20
2017-08-09T07:12:53.610Z,9.13
2017-08-09T07:15:21.734Z,9.20
2017-08-09T07:17:49.942Z,8.00
2017-08-09T07:20:18.058Z,8.07
2017-08-09T07:22:46.221Z,8.23
2017-08-09T07:25:14.337Z,8.57
2017-08-09T07:27:42.587Z,8.27
2017-08-09T07:30:10.763Z,8.10
2017-08-09T07:32:38.878Z,8.10
2017-08-09T07:35:07.074Z,6.83
2017-08-09T07:37:35.226Z,7.40
2017-08-09T07:40:03.475Z,6.33
2017-08-09T07:42:31.603Z,6.53
2017-08-09T07:44:59.782Z,7.00
2017-08-09T07:47:27.933Z,5.87
2017-08-09T07:49:56.513Z,6.37
2017-08-09T07:52:24.634Z,5.53
2017-08-09T07:54:52.806Z,5.57
2017-08-09T07:57:20.933Z,5.60
2017-08-09T07:59:49.215Z,5.33
2017-08-09T08:02:17.351Z,5.50
2017-08-09T08:04:45.491Z,5.63
2017-08-09T08:07:13.730Z,5.23
2017-08-09T08:09:41.861Z,6.13
2017-08-09T08:12:10.007Z,5.70
2017-08-09T08:14:38.158Z,5.07
2017-08-09T08:17:06.295Z,5.87
2017-08-09T08:19:34.529Z,5.93
2017-08-09T08:22:02.645Z,5.47
2017-08-09T08:24:30.780Z,6.20
2017-08-09T08:26:59.026Z,6.43
2017-08-09T08:29:28.341Z,6.90
2017-08-09T08:31:57.488Z,6.10
2017-08-09T08:34:26.416Z,6.87
2017-08-09T08:36:54.527Z,6.77
2017-08-09T08:39:22.650Z,7.37
2017-08-09T08:41:50.885Z,7.27
2017-08-09T08:44:26.685Z,7.37
2017-08-09T08:46:54.899Z,7.67
2017-08-09T08:49:23.937Z,6.73
2017-08-09T08:51:52.324Z,6.27
2017-08-09T08:54:20.413Z,6.00
2017-08-09T08:56:48.721Z,7.17
2017-08-09T08:59:17.279Z,7.80
2017-08-09T09:01:46.965Z,9.33
2017-08-09T09:04:17.526Z,9.10
2017-08-09T09:06:45.780Z,10.20
2017-08-09T09:09:13.955Z,8.57
2017-08-09T09:11:42.164Z,8.13
2017-08-09T09:16:53.325Z,9.53
2017-08-09T09:19:41.268Z,11.23
2017-08-09T09:22:12.518Z,9.87
2017-08-09T09:24:41.913Z,10.30
2017-08-09T09:27:10.270Z,11.37
2017-08-09T09:29:38.401Z,10.00
2017-08-09T09:32:06.556Z,9.60
2017-08-09T09:34:44.246Z,8.67
2017-08-09T09:37:13.592Z,9.70
2017-08-09T09:39:41.793Z,10.13
2017-08-09T09:42:09.977Z,9.83
2017-08-09T09:44:38.323Z,10.00
2017-08-09T09:47:06.463Z,8.67
2017-08-09T09:49:34.615Z,9.40
2017-08-09T09:52:02.712Z,10.33
2017-08-09T09:54:30.867Z,8.63
2017-08-09T09:57:00.079Z,10.20
2017-08-09T09:59:28.229Z,11.23
2017-08-09T10:01:58.290Z,11.03
2017-08-09T10:04:27.488Z,10.43
2017-08-09T10:06:55.763Z,11.33
2017-08-09T10:09:24.668Z,9.73
2017-08-09T10:11:55.846Z,9.87
2017-08-09T10:14:24.003Z,10.50
2017-08-09T10:16:52.285Z,9.93
2017-08-09T10:19:22.433Z,8.30
2017-08-09T10:21:50.603Z,9.80
2017-08-09T10:24:18.761Z,9.93
2017-08-09T10:26:49.018Z,9.37
2017-08-09T10:29:17.679Z,9.63
2017-08-09T10:31:46.029Z,10.00
2017-08-09T10:34:14.262Z,11.83
2017-08-09T10:36:42.544Z,9.50
2017-08-09T10:39:11.548Z,12.87
2017-08-09T10:41:39.644Z,12.67
2017-08-09T10:44:07.800Z,11.40
2017-08-09T10:46:36.062Z,11.10
2017-08-09T10:49:04.204Z,11.60
2017-08-09T10:51:32.469Z,10.80
2017-08-09T10:54:00.734Z,11.33
2017-08-09T10:56:28.872Z,10.97
2017-08-09T10:58:57.006Z,12.20
2017-08-09T11:01:25.392Z,9.40
2017-08-09T11:03:53.896Z,12.20
2017-08-09T11:06:22.107Z,11.53
2017-08-09T11:08:50.282Z,11.47
2017-08-09T11:11:41.772Z,11.90
2017-08-09T11:14:11.864Z,12.37
2017-08-09T11:16:40.001Z,12.13
2017-08-09T11:21:46.985Z,14.40
2017-08-09T11:24:15.646Z,12.47
2017-08-09T11:26:43.787Z,13.37
2017-08-09T11:29:12.622Z,12.50
2017-08-09T11:31:40.897Z,12.97
2017-08-09T11:34:09.023Z,12.50
2017-08-09T11:36:41.866Z,14.00
2017-08-09T11:39:10.158Z,14.33
2017-08-09T11:41:38.352Z,12.57
2017-08-09T11:44:08.450Z,12.50
2017-08-09T11:46:38.557Z,12.63
2017-08-09T11:49:06.676Z,14.40
2017-08-09T11:51:34.866Z,15.90
2017-08-09T11:54:03.038Z,14.97
2017-08-09T11:56:31.174Z,17.27
2017-08-09T11:59:00.231Z,15.27
2017-08-09T12:01:28.561Z,15.80
2017-08-09T12:03:56.755Z,15.67
2017-08-09T12:06:25.351Z,14.87
2017-08-09T12:08:53.616Z,15.10
2017-08-09T12:11:21.762Z,15.53
2017-08-09T12:13:52.022Z,14.17
2017-08-09T12:16:20.180Z,14.10
2017-08-09T12:18:51.393Z,14.87
2017-08-09T12:21:21.865Z,15.53
2017-08-09T12:23:54.667Z,14.10
2017-08-09T12:26:22.904Z,12.50
2017-08-09T12:28:51.128Z,14.17
2017-08-09T12:31:19.637Z,14.10
2017-08-09T12:33:47.774Z,13.43
2017-08-09T12:36:16.079Z,13.33
2017-08-09T12:38:44.277Z,13.37
2017-08-09T12:41:12.696Z,12.67
2017-08-09T12:43:40.833Z,12.80
2017-08-09T12:46:09.173Z,13.60
2017-08-09T12:48:37.386Z,11.80
2017-08-09T12:51:09.468Z,10.33
2017-08-09T12:53:37.689Z,10.43
2017-08-09T12:56:06.788Z,11.00
2017-08-09T12:58:36.040Z,10.37
2017-08-09T13:01:04.160Z,9.87
2017-08-09T13:03:32.311Z,9.80
2017-08-09T13:06:00.513Z,10.70
2017-08-09T13:08:28.715Z,9.07
2017-08-09T13:10:58.009Z,11.10
2017-08-09T13:13:26.262Z,10.40
2017-08-09T13:15:54.380Z,10.30
2017-08-09T13:18:23.272Z,9.80
2017-08-09T13:20:51.385Z,9.47
2017-08-09T13:23:19.691Z,10.07
2017-08-09T13:25:47.844Z,9.30
2017-08-09T13:28:15.954Z,9.30
2017-08-09T13:30:44.227Z,9.27
2017-08-09T13:33:12.393Z,8.33
2017-08-09T13:35:40.612Z,8.17
2017-08-09T13:38:08.973Z,8.30
2017-08-09T13:40:37.229Z,8.33
2017-08-09T13:43:10.779Z,8.33
2017-08-09T13:45:39.615Z,7.90
2017-08-09T13:48:08.154Z,7.57
2017-08-09T13:50:36.780Z,6.40
2017-08-09T13:53:04.926Z,6.90
2017-08-09T13:55:33.045Z,7.20
2017-08-09T13:58:01.278Z,7.30
2017-08-09T14:00:29.684Z,7.30
2017-08-09T14:02:57.814Z,6.50
2017-08-09T14:05:26.071Z,7.13
2017-08-09T14:07:54.236Z,6.83
2017-08-09T14:10:22.481Z,5.67
2017-08-09T14:12:50.737Z,6.70
2017-08-09T14:15:18.925Z,6.67
2017-08-09T14:17:47.058Z,6.33
2017-08-09T14:20:15.207Z,6.50
2017-08-09T14:22:43.403Z,5.50
2017-08-09T14:25:11.604Z,5.70
2017-08-09T14:27:39.803Z,5.90
2017-08-09T14:30:11.028Z,5.67
2017-08-09T14:32:39.276Z,5.17
2017-08-09T14:35:08.502Z,4.93
2017-08-09T14:37:36.844Z,5.30
2017-08-09T14:40:05.089Z,5.30
2017-08-09T14:42:33.554Z,4.77
2017-08-09T14:45:01.778Z,4.37
2017-08-09T14:47:30.862Z,4.17
2017-08-09T14:49:59.003Z,3.33
2017-08-09T14:52:27.179Z,2.90
2017-08-09T14:54:55.303Z,3.77
2017-08-09T14:57:23.641Z,3.60
2017-08-09T14:59:51.796Z,3.43
2017-08-09T15:02:20.045Z,3.03
2017-08-09T15:04:49.178Z,3.37
2017-08-09T15:07:17.316Z,3.20
2017-08-09T15:09:46.770Z,3.03
2017-08-09T15:12:14.963Z,3.20
2017-08-09T15:14:43.331Z,3.40
2017-08-09T15:17:11.426Z,3.60
2017-08-09T15:19:39.541Z,2.97
2017-08-09T15:22:08.664Z,3.20
2017-08-09T15:24:36.964Z,3.63
2017-08-09T15:27:05.190Z,3.20
2017-08-09T15:29:33.327Z,3.83
2017-08-09T15:32:01.467Z,4.50
2017-08-09T15:34:30.510Z,3.47
2017-08-09T15:36:58.736Z,4.00
2017-08-09T15:39:26.891Z,4.40
2017-08-09T15:41:55.848Z,4.43
2017-08-09T15:44:24.952Z,3.90
2017-08-09T15:46:53.088Z,4.50
2017-08-09T15:49:23.055Z,4.40
2017-08-09T15:51:51.282Z,4.80
2017-08-09T15:54:19.609Z,4.57
2017-08-09T15:56:47.867Z,4.00
2017-08-09T15:59:18.295Z,5.17
2017-08-09T16:01:46.463Z,4.00
2017-08-09T16:04:14.654Z,4.80
2017-08-09T16:06:42.825Z,5.33
2017-08-09T16:09:11.727Z,5.93
2017-08-09T16:11:41.722Z,4.77
2017-08-09T16:14:10.524Z,5.33
2017-08-09T16:16:39.796Z,5.03
2017-08-09T16:19:08.086Z,5.10
2017-08-09T16:21:36.282Z,5.13
2017-08-09T16:24:04.677Z,5.50
2017-08-09T16:26:32.796Z,5.90
2017-08-09T16:29:01.030Z,5.20
2017-08-09T16:31:30.072Z,5.93
2017-08-09T16:33:58.649Z,6.30
2017-08-09T16:36:26.830Z,5.67
2017-08-09T16:38:54.977Z,5.77
2017-08-09T16:41:23.126Z,5.67
2017-08-09T16:43:51.522Z,6.03
2017-08-09T16:46:20.304Z,5.43
2017-08-09T16:48:48.479Z,5.93
2017-08-09T16:51:16.698Z,5.40
2017-08-09T16:53:44.926Z,6.00
2017-08-09T16:56:13.096Z,5.90
2017-08-09T16:58:41.264Z,5.40
2017-08-09T17:01:09.399Z,5.33
2017-08-09T17:03:37.649Z,4.50
2017-08-09T17:06:05.772Z,4.23
2017-08-09T17:08:33.893Z,5.53
2017-08-09T17:11:03.865Z,5.47
2017-08-09T17:13:37.095Z,5.40
2017-08-09T17:16:05.337Z,5.10
2017-08-09T17:18:33.428Z,5.03
2017-08-09T17:21:01.624Z,5.00
2017-08-09T17:23:35.811Z,6.03
2017-08-09T17:26:03.973Z,4.33
2017-08-09T17:28:32.138Z,4.43
2017-08-09T17:31:00.245Z,4.90
2017-08-09T17:33:28.384Z,5.13
2017-08-09T17:35:56.522Z,4.67
2017-08-09T17:38:24.633Z,4.37
2017-08-09T17:40:55.868Z,4.70
2017-08-09T17:43:24.916Z,4.93
2017-08-09T17:45:53.081Z,4.33
2017-08-09T17:48:21.210Z,5.20
2017-08-09T17:50:49.364Z,5.17
2017-08-09T17:53:17.481Z,4.10
2017-08-09T17:55:45.699Z,4.83
2017-08-09T17:58:13.807Z,4.60
2017-08-09T18:00:41.976Z,4.30
2017-08-09T18:03:10.099Z,5.17
2017-08-09T18:05:38.244Z,4.57
2017-08-09T18:08:06.476Z,4.97
2017-08-09T18:10:36.247Z,4.60
2017-08-09T18:13:09.417Z,4.10
2017-08-09T18:15:38.280Z,4.33
2017-08-09T18:18:12.266Z,4.30
2017-08-09T18:20:42.096Z,4.40
2017-08-09T18:23:12.731Z,4.33
2017-08-09T18:25:40.895Z,4.00
2017-08-09T18:28:09.129Z,4.30
2017-08-09T18:30:37.273Z,3.93
2017-08-09T18:33:05.435Z,4.47
2017-08-09T18:35:37.281Z,3.90
2017-08-09T18:38:05.427Z,4.20
2017-08-09T18:40:45.501Z,4.00
2017-08-09T18:43:24.434Z,4.53
2017-08-09T18:48:30.493Z,4.70
2017-08-09T18:50:58.642Z,4.43
2017-08-09T18:53:26.812Z,4.13
2017-08-09T18:55:57.396Z,4.50
2017-08-09T18:58:28.656Z,4.50
2017-08-09T19:01:03.232Z,4.10
2017-08-09T19:03:31.455Z,4.07
2017-08-09T19:06:08.503Z,4.50
2017-08-09T19:08:38.793Z,4.33
2017-08-09T19:13:45.129Z,3.60
2017-08-09T19:16:20.266Z,4.57
2017-08-09T19:18:58.783Z,4.53
2017-08-09T19:21:27.003Z,3.90
2017-08-09T19:23:55.131Z,5.03
2017-08-09T19:26:24.396Z,4.40
2017-08-09T19:29:09.361Z,4.40
2017-08-09T19:31:42.111Z,5.00
2017-08-09T19:37:03.579Z,4.70
2017-08-09T19:39:31.693Z,4.60
2017-08-09T19:42:03.050Z,5.23
2017-08-09T19:44:35.025Z,5.47
2017-08-09T19:47:07.312Z,5.03
2017-08-09T19:49:35.404Z,4.90
2017-08-09T19:52:04.371Z,5.13
2017-08-09T19:54:49.600Z,5.30
2017-08-09T19:57:18.649Z,4.13
2017-08-09T19:59:47.339Z,4.90
2017-08-09T20:02:19.089Z,5.40
2017-08-09T20:04:47.235Z,5.87
2017-08-09T20:07:15.369Z,5.50
2017-08-09T20:09:43.508Z,5.33
2017-08-09T20:12:11.800Z,4.90
2017-08-09T20:14:46.182Z,5.50
2017-08-09T20:17:34.483Z,5.93
2017-08-09T20:20:02.768Z,5.77
2017-08-09T20:22:30.873Z,5.20
2017-08-09T20:24:58.980Z,5.37
2017-08-09T20:27:27.170Z,6.00
2017-08-09T20:29:55.304Z,5.73
2017-08-09T20:32:31.932Z,5.37
2017-08-09T20:35:01.716Z,6.70
2017-08-09T20:37:29.866Z,6.43
2017-08-09T20:39:58.000Z,6.40
2017-08-09T20:42:26.386Z,5.73
2017-08-09T20:45:10.015Z,6.23
2017-08-09T20:47:38.216Z,6.50
2017-08-09T20:50:06.318Z,6.43
2017-08-09T20:52:35.379Z,7.20
2017-08-09T20:55:03.445Z,7.93
2017-08-09T20:57:31.766Z,7.40
2017-08-09T20:59:59.853Z,7.10
2017-08-09T21:02:27.941Z,6.97
2017-08-09T21:05:01.670Z,6.30
2017-08-09T21:07:29.810Z,6.17
2017-08-09T21:09:57.910Z,7.03
2017-08-09T21:12:26.017Z,6.50
2017-08-09T21:14:54.143Z,7.03
2017-08-09T21:17:23.178Z,6.30
2017-08-09T21:19:51.269Z,6.80
2017-08-09T21:22:19.358Z,6.20
2017-08-09T21:24:58.394Z,7.10
2017-08-09T21:27:26.528Z,6.77
2017-08-09T21:29:59.011Z,7.30
2017-08-09T21:32:27.110Z,6.80
2017-08-09T21:35:05.854Z,6.10
2017-08-09T21:37:33.953Z,7.10
2017-08-09T21:40:02.066Z,6.30
2017-08-09T21:42:31.012Z,6.93
2017-08-09T21:44:59.072Z,6.53
2017-08-09T21:47:30.336Z,7.20
2017-08-09T21:49:58.441Z,6.60
2017-08-09T21:52:33.771Z,7.00
2017-08-09T21:55:02.694Z,8.93
2017-08-09T21:57:37.146Z,7.27
2017-08-09T22:03:08.411Z,8.13
2017-08-09T22:05:50.436Z,7.00
2017-08-09T22:08:18.552Z,7.30
2017-08-09T22:10:50.146Z,7.80
2017-08-09T22:13:22.554Z,8.37
2017-08-09T22:15:59.857Z,8.37
2017-08-09T22:27:02.930Z,7.87
2017-08-09T22:29:35.382Z,7.33
2017-08-09T22:32:14.236Z,7.33
2017-08-09T22:34:43.473Z,7.50
2017-08-09T22:37:16.407Z,7.30
2017-08-09T22:39:44.490Z,7.80
2017-08-09T22:42:19.291Z,7.77
2017-08-09T22:44:48.076Z,7.20
2017-08-09T22:47:17.095Z,6.70
2017-08-09T22:49:46.590Z,6.30
2017-08-09T22:52:14.716Z,6.30
2017-08-09T23:00:42.422Z,7.10
2017-08-09T23:03:11.981Z,7.70
2017-08-09T23:14:46.683Z,8.07
2017-08-09T23:17:17.004Z,10.70
2017-08-09T23:19:45.153Z,10.00
2017-08-09T23:22:23.783Z,10.60
2017-08-09T23:24:51.902Z,10.90
2017-08-09T23:27:20.033Z,11.03
2017-08-09T23:29:48.174Z,13.40
2017-08-09T23:32:16.301Z,12.00
2017-08-09T23:34:44.442Z,14.00
2017-08-09T23:37:12.551Z,14.13
2017-08-09T23:39:41.705Z,14.30
2017-08-09T23:42:09.827Z,13.20
2017-08-09T23:44:37.937Z,13.50
2017-08-09T23:47:06.129Z,13.27
2017-08-09T23:49:34.232Z,13.10
2017-08-09T23:52:02.355Z,12.93
2017-08-09T23:54:31.390Z,13.60
2017-08-09T23:56:59.568Z,13.90
2017-08-09T23:59:27.684Z,14.87
